createdAt,value
2023-02-04T00:00:23.139Z,5.00
2023-02-04T00:02:50.851Z,3.60
2023-02-04T00:06:09.542Z,5.00
2023-02-04T00:23:39.288Z,3.00
2023-02-04T00:26:06.500Z,3.90
2023-02-04T00:33:29.136Z,3.50
2023-02-04T00:40:51.848Z,3.40
2023-02-04T00:53:09.973Z,5.00
2023-02-04T00:55:37.273Z,3.50
2023-02-04T01:00:33.359Z,3.30
2023-02-04T01:03:03.219Z,4.00
2023-02-04T01:15:25.243Z,4.80
2023-02-04T01:17:54.358Z,3.30
2023-02-04T01:22:50.607Z,3.10
2023-02-04T01:25:20.854Z,3.10
2023-02-04T01:27:50.476Z,3.00
2023-02-04T01:30:17.796Z,3.00
2023-02-04T01:37:41.274Z,3.50
2023-02-04T01:40:09.548Z,2.80
2023-02-04T01:42:37.339Z,3.00
2023-02-04T01:45:06.409Z,2.80
2023-02-04T01:47:35.200Z,2.90
2023-02-04T01:52:38.403Z,2.90
2023-02-04T01:55:17.320Z,2.50
2023-02-04T01:57:45.939Z,3.00
2023-02-04T02:00:34.027Z,2.60
2023-02-04T02:05:37.447Z,2.90
2023-02-04T02:08:07.064Z,2.60
2023-02-04T02:10:39.041Z,2.90
2023-02-04T02:13:18.808Z,2.90
2023-02-04T02:23:45.145Z,2.90
2023-02-04T02:26:13.529Z,2.90
2023-02-04T02:36:06.902Z,2.70
2023-02-04T02:38:34.180Z,2.20
2023-02-04T02:41:05.548Z,2.00
2023-02-04T02:43:32.996Z,2.50
2023-02-04T02:46:03.360Z,1.90
2023-02-04T02:58:34.972Z,1.10
2023-02-04T03:01:05.014Z,1.60
2023-02-04T03:03:38.899Z,1.50
2023-02-04T03:06:13.406Z,1.60
2023-02-04T03:18:41.311Z,2.10
2023-02-04T03:21:11.675Z,1.60
2023-02-04T03:23:39.103Z,1.90
2023-02-04T03:26:06.882Z,2.20
2023-02-04T03:33:31.607Z,2.20
2023-02-04T03:36:01.574Z,1.70
2023-02-04T03:48:18.845Z,2.10
2023-02-04T03:50:46.210Z,1.70
2023-02-04T03:55:40.687Z,1.30
2023-02-04T03:58:07.888Z,1.90
2023-02-04T04:08:01.822Z,2.10
2023-02-04T04:12:59.962Z,2.10
2023-02-04T04:22:53.176Z,2.20
2023-02-04T04:30:15.713Z,2.40
2023-02-04T04:35:10.168Z,2.10
2023-02-04T04:40:04.910Z,2.40
2023-02-04T04:49:56.998Z,1.30
2023-02-04T04:54:52.122Z,1.80
2023-02-04T04:59:46.801Z,1.30
2023-02-04T05:07:18.488Z,1.70
2023-02-04T05:09:45.701Z,1.60
2023-02-04T05:12:12.783Z,1.70
2023-02-04T05:14:39.914Z,0.50
2023-02-04T05:19:35.806Z,0.10
2023-02-04T05:24:30.357Z,3.00
2023-02-04T05:26:57.308Z,1.50
2023-02-04T05:29:24.430Z,0.60
2023-02-04T05:31:51.438Z,1.40
2023-02-04T05:34:18.392Z,1.40
2023-02-04T05:46:35.365Z,2.00
2023-02-04T05:53:57.702Z,1.90
2023-02-04T05:58:55.775Z,1.30
2023-02-04T06:03:51.300Z,0.90
2023-02-04T06:06:23.597Z,1.00
2023-02-04T06:16:17.772Z,1.30
2023-02-04T06:31:04.511Z,1.70
2023-02-04T06:41:05.268Z,1.00
2023-02-04T06:43:35.104Z,1.00
2023-02-04T06:46:06.002Z,0.90
2023-02-04T06:58:50.053Z,0.40
2023-02-04T07:01:17.250Z,1.00
2023-02-04T07:03:47.176Z,0.70
2023-02-04T07:06:15.008Z,0.70
2023-02-04T07:16:22.353Z,1.50
2023-02-04T07:21:25.543Z,0.50
2023-02-04T07:35:55.998Z,0.40
2023-02-04T07:46:21.492Z,0.60
2023-02-04T07:48:57.068Z,0.60
2023-02-04T07:51:39.513Z,1.20
2023-02-04T07:59:56.404Z,0.70
2023-02-04T08:02:36.917Z,0.70
2023-02-04T08:05:25.965Z,0.80
2023-02-04T08:14:34.601Z,1.30
2023-02-04T08:21:20.900Z,0.60
2023-02-04T08:27:15.347Z,1.20
2023-02-04T08:30:15.750Z,1.10
2023-02-04T08:33:28.586Z,1.90
2023-02-04T08:42:38.891Z,2.10
2023-02-04T08:45:31.715Z,2.80
2023-02-04T08:48:17.714Z,2.30
2023-02-04T08:53:49.738Z,2.20
2023-02-04T08:56:22.781Z,2.30
2023-02-04T09:02:12.456Z,2.40
2023-02-04T09:04:48.542Z,4.10
2023-02-04T09:07:28.296Z,2.70
2023-02-04T09:15:49.254Z,3.10
2023-02-04T09:24:01.306Z,4.60
2023-02-04T09:26:36.718Z,3.50
2023-02-04T09:29:15.315Z,3.50
2023-02-04T09:31:50.506Z,3.60
2023-02-04T09:37:15.717Z,3.60
2023-02-04T09:40:10.536Z,3.70
2023-02-04T09:43:09.902Z,3.90
2023-02-04T09:45:48.473Z,4.60
2023-02-04T09:51:31.773Z,4.00
2023-02-04T09:54:18.169Z,4.10
2023-02-04T09:56:58.324Z,3.40
2023-02-04T10:00:12.251Z,4.20
2023-02-04T10:02:50.677Z,4.40
2023-02-04T10:08:41.803Z,4.00
2023-02-04T10:11:50.683Z,3.80
2023-02-04T10:14:28.105Z,3.60
2023-02-04T10:17:07.650Z,2.60
2023-02-04T10:19:48.824Z,3.60
2023-02-04T10:22:23.758Z,3.70
2023-02-04T10:24:53.823Z,4.00
2023-02-04T10:27:29.733Z,5.10
2023-02-04T10:31:05.835Z,5.10
2023-02-04T10:36:31.419Z,6.00
2023-02-04T10:39:22.746Z,4.90
2023-02-04T10:41:53.378Z,5.30
2023-02-04T10:44:32.595Z,5.40
2023-02-04T10:47:08.822Z,6.40
2023-02-04T10:49:47.984Z,7.20
2023-02-04T10:52:17.732Z,6.30
2023-02-04T10:54:52.326Z,7.90
2023-02-04T10:57:28.493Z,9.00
2023-02-04T10:59:59.465Z,7.10
2023-02-04T11:03:06.071Z,8.20
2023-02-04T11:05:37.177Z,8.50
2023-02-04T11:08:23.556Z,8.60
2023-02-04T11:10:59.330Z,8.30
2023-02-04T11:13:49.282Z,8.20
2023-02-04T11:16:30.460Z,8.00
2023-02-04T11:19:09.256Z,7.80
2023-02-04T11:21:39.485Z,9.10
2023-02-04T11:24:13.836Z,8.90
2023-02-04T11:26:43.286Z,9.40
2023-02-04T11:29:44.253Z,9.20
2023-02-04T11:32:28.143Z,9.40
2023-02-04T11:35:06.041Z,9.00
2023-02-04T11:37:37.870Z,9.40
2023-02-04T11:40:28.894Z,9.00
2023-02-04T11:43:04.201Z,8.10
2023-02-04T11:45:35.153Z,8.40
2023-02-04T11:48:21.745Z,8.60
2023-02-04T11:51:04.133Z,9.20
2023-02-04T11:53:34.104Z,8.10
2023-02-04T11:56:04.729Z,7.50
2023-02-04T11:58:43.226Z,8.70
2023-02-04T12:01:24.043Z,8.20
2023-02-04T12:04:01.468Z,7.60
2023-02-04T12:06:39.624Z,8.90
2023-02-04T12:09:18.963Z,7.50
2023-02-04T12:12:06.686Z,7.40
2023-02-04T12:14:39.120Z,7.70
2023-02-04T12:17:36.314Z,8.10
2023-02-04T12:20:07.180Z,7.30
2023-02-04T12:22:37.609Z,7.10
2023-02-04T12:25:17.103Z,7.60
2023-02-04T12:27:44.482Z,7.30
2023-02-04T12:30:14.259Z,6.90
2023-02-04T12:32:43.654Z,6.30
2023-02-04T12:35:10.606Z,6.50
2023-02-04T12:37:37.581Z,6.60
2023-02-04T12:40:08.066Z,7.70
2023-02-04T12:42:35.335Z,7.00
2023-02-04T12:45:05.162Z,8.10
2023-02-04T12:47:40.975Z,6.80
2023-02-04T12:50:09.504Z,7.70
2023-02-04T12:52:42.395Z,6.80
2023-02-04T12:55:09.519Z,7.20
2023-02-04T12:57:36.593Z,6.70
2023-02-04T13:00:04.291Z,6.60
2023-02-04T13:02:32.668Z,6.60
2023-02-04T13:04:59.653Z,6.70
2023-02-04T13:07:29.636Z,6.40
2023-02-04T13:09:57.562Z,5.50
2023-02-04T13:12:27.766Z,6.40
2023-02-04T13:14:57.704Z,6.20
2023-02-04T13:17:25.545Z,6.60
2023-02-04T13:19:55.538Z,6.30
2023-02-04T13:25:04.271Z,5.50
2023-02-04T13:27:32.027Z,5.40
2023-02-04T13:29:59.309Z,5.00
2023-02-04T13:32:26.290Z,5.10
2023-02-04T13:34:56.026Z,6.30
2023-02-04T13:37:23.149Z,5.00
2023-02-04T13:44:45.825Z,6.30
2023-02-04T13:49:45.013Z,4.60
2023-02-04T13:59:41.182Z,4.20
2023-02-04T14:07:14.097Z,2.70
2023-02-04T14:12:21.427Z,4.00
2023-02-04T14:14:59.403Z,3.80
2023-02-04T14:17:29.692Z,1.00
2023-02-04T14:25:01.875Z,3.80
2023-02-04T14:27:31.402Z,3.50
2023-02-04T14:37:21.790Z,3.50
2023-02-04T14:39:50.559Z,2.90
2023-02-04T14:47:16.873Z,6.10
2023-02-04T14:49:46.952Z,3.50
2023-02-04T14:52:14.600Z,3.50
2023-02-04T14:54:41.706Z,3.40
2023-02-04T14:57:12.844Z,3.30
2023-02-04T15:02:16.669Z,3.60
2023-02-04T15:07:13.794Z,3.00
2023-02-04T15:12:11.446Z,3.80
2023-02-04T15:14:43.550Z,2.50
2023-02-04T15:17:13.051Z,2.80
2023-02-04T15:22:10.766Z,1.50
2023-02-04T15:24:42.837Z,2.80
2023-02-04T15:27:11.170Z,3.30
2023-02-04T15:32:05.610Z,2.90
2023-02-04T15:39:27.746Z,2.60
2023-02-04T15:41:54.838Z,3.80
2023-02-04T15:44:24.324Z,1.80
2023-02-04T15:49:22.393Z,2.50
2023-02-04T15:51:56.051Z,2.50
2023-02-04T15:54:23.156Z,2.80
2023-02-04T16:01:52.437Z,2.40
2023-02-04T16:04:23.068Z,1.80
2023-02-04T16:09:28.698Z,2.40
2023-02-04T16:14:30.207Z,2.10
2023-02-04T16:17:12.679Z,2.40
2023-02-04T16:22:07.621Z,2.50
2023-02-04T16:24:34.949Z,2.90
2023-02-04T16:27:01.948Z,2.50
2023-02-04T16:29:28.969Z,3.30
2023-02-04T16:31:57.681Z,2.50
2023-02-04T16:34:25.382Z,2.50
2023-02-04T16:36:52.616Z,2.50
2023-02-04T16:39:19.656Z,2.90
2023-02-04T16:41:46.816Z,3.50
2023-02-04T16:44:14.903Z,2.20
2023-02-04T16:49:16.454Z,2.70
2023-02-04T16:51:48.349Z,5.30
2023-02-04T17:01:44.733Z,2.60
2023-02-04T17:04:11.991Z,2.60
2023-02-04T17:14:14.133Z,2.80
2023-02-04T17:16:45.145Z,2.40
2023-02-04T17:19:13.647Z,2.60
2023-02-04T17:21:40.939Z,2.60
2023-02-04T17:24:11.399Z,2.60
2023-02-04T17:26:40.305Z,2.60
2023-02-04T17:29:12.519Z,2.60
2023-02-04T17:31:42.882Z,1.80
2023-02-04T17:34:16.252Z,3.60
2023-02-04T17:36:43.353Z,1.70
2023-02-04T17:41:43.407Z,2.40
2023-02-04T17:49:20.800Z,2.30
2023-02-04T17:59:16.178Z,2.30
2023-02-04T18:01:46.052Z,0.80
2023-02-04T18:04:14.309Z,2.20
2023-02-04T18:09:17.194Z,2.10
2023-02-04T18:11:56.262Z,-0.30
2023-02-04T18:14:30.669Z,2.20
2023-02-04T18:17:02.550Z,2.20
2023-02-04T18:19:39.633Z,2.10
2023-02-04T18:22:14.884Z,2.30
2023-02-04T18:24:45.077Z,2.10
2023-02-04T18:27:16.869Z,2.30
2023-02-04T18:29:56.480Z,2.00
2023-02-04T18:32:40.876Z,1.90
2023-02-04T18:35:37.280Z,1.90
2023-02-04T18:38:26.842Z,1.50
2023-02-04T18:41:10.395Z,1.00
2023-02-04T18:44:02.585Z,2.00
2023-02-04T18:46:35.683Z,2.00
2023-02-04T18:49:30.261Z,1.90
2023-02-04T18:54:46.973Z,2.00
2023-02-04T18:59:47.821Z,1.50
2023-02-04T19:02:38.378Z,2.00
2023-02-04T19:05:28.517Z,1.90
2023-02-04T19:08:04.667Z,1.90
2023-02-04T19:10:40.947Z,1.90
2023-02-04T19:13:13.264Z,1.80
2023-02-04T19:18:26.032Z,1.80
2023-02-04T19:23:23.810Z,2.10
2023-02-04T19:25:52.642Z,1.70
2023-02-04T19:28:32.995Z,1.70
2023-02-04T19:31:05.880Z,1.70
2023-02-04T19:33:47.302Z,1.70
2023-02-04T19:36:38.163Z,1.70
2023-02-04T19:39:21.635Z,1.70
2023-02-04T19:41:52.651Z,2.80
2023-02-04T19:44:48.990Z,1.70
2023-02-04T19:47:41.688Z,1.70
2023-02-04T19:50:25.525Z,1.70
2023-02-04T19:55:30.222Z,0.90
2023-02-04T19:58:16.814Z,1.70
2023-02-04T20:00:57.519Z,3.90
2023-02-04T20:03:46.160Z,1.70
2023-02-04T20:06:29.704Z,1.60
2023-02-04T20:09:11.566Z,1.60
2023-02-04T20:11:46.224Z,1.60
2023-02-04T20:14:36.228Z,1.60
2023-02-04T20:17:21.721Z,1.20
2023-02-04T20:19:52.709Z,2.00
2023-02-04T20:22:26.254Z,1.60
2023-02-04T20:24:58.691Z,2.10
2023-02-04T20:27:36.542Z,1.50
2023-02-04T20:30:11.927Z,3.10
2023-02-04T20:32:47.252Z,2.90
2023-02-04T20:37:51.179Z,1.40
2023-02-04T20:40:31.819Z,1.40
2023-02-04T20:43:05.609Z,1.30
2023-02-04T20:46:02.389Z,2.20
2023-02-04T20:48:36.229Z,1.20
2023-02-04T20:51:05.269Z,1.20
2023-02-04T20:53:58.955Z,1.10
2023-02-04T20:56:29.108Z,0.30
2023-02-04T20:59:35.282Z,1.00
2023-02-04T21:02:13.763Z,0.90
2023-02-04T21:04:47.004Z,1.70
2023-02-04T21:07:18.757Z,0.70
2023-02-04T21:09:46.345Z,-1.10
2023-02-04T21:12:14.012Z,1.00
2023-02-04T21:14:41.577Z,-0.30
2023-02-04T21:17:12.499Z,0.20
2023-02-04T21:19:42.310Z,-0.60
2023-02-04T21:27:04.684Z,0.30
2023-02-04T21:29:31.933Z,-0.50
2023-02-04T21:36:54.253Z,0.30
2023-02-04T21:39:21.740Z,0.20
2023-02-04T21:44:37.335Z,0.60
2023-02-04T21:47:04.605Z,1.10
2023-02-04T21:54:26.752Z,0.70
2023-02-04T21:59:22.579Z,-0.30
2023-02-04T22:01:49.682Z,0.00
2023-02-04T22:04:16.909Z,-0.70
2023-02-04T22:19:06.481Z,-0.40
2023-02-04T22:24:03.667Z,-0.20
2023-02-04T22:26:30.899Z,-0.20
2023-02-04T22:31:25.386Z,-0.30
2023-02-04T22:36:22.251Z,-0.30
2023-02-04T22:38:49.697Z,-0.40
2023-02-04T22:41:16.736Z,-0.30
2023-02-04T22:43:43.812Z,0.00
2023-02-04T22:48:39.959Z,-1.20
2023-02-04T22:51:10.115Z,-0.40
2023-02-04T23:08:23.064Z,0.20
2023-02-04T23:20:56.380Z,-0.20
2023-02-04T23:28:34.301Z,-0.10
2023-02-04T23:31:02.912Z,1.20
2023-02-04T23:43:20.816Z,0.00
2023-02-04T23:45:48.045Z,-1.20
2023-02-04T23:55:37.623Z,2.90
2023-02-04T23:58:05.484Z,-1.60
